sensor_id;sensor_type;location;lat;lon;timestamp;pressure;altitude;pressure_sealevel;temperature;humidity
73651;BME280;61944;52.538;6.108;2023-07-31T00:01:59;100753.78;;;16.39;100.00
73651;BME280;61944;52.538;6.108;2023-07-31T00:04:25;100740.97;;;16.31;100.00
73651;BME280;61944;52.538;6.108;2023-07-31T00:06:50;100741.44;;;16.26;100.00
73651;BME280;61944;52.538;6.108;2023-07-31T00:09:16;100726.91;;;16.28;100.00
73651;BME280;61944;52.538;6.108;2023-07-31T00:11:41;100743.94;;;16.17;100.00
73651;BME280;61944;52.538;6.108;2023-07-31T00:14:06;100736.22;;;16.21;100.00
73651;BME280;61944;52.538;6.108;2023-07-31T00:16:32;100719.66;;;16.23;100.00
73651;BME280;61944;52.538;6.108;2023-07-31T00:18:57;100722.31;;;16.37;100.00
73651;BME280;61944;52.538;6.108;2023-07-31T00:21:22;100724.47;;;16.30;100.00
73651;BME280;61944;52.538;6.108;2023-07-31T00:23:48;100727.56;;;16.39;100.00
73651;BME280;61944;52.538;6.108;2023-07-31T00:26:13;100715.53;;;16.31;100.00
73651;BME280;61944;52.538;6.108;2023-07-31T00:28:39;100710.56;;;16.42;100.00
73651;BME280;61944;52.538;6.108;2023-07-31T00:31:04;100709.59;;;16.22;100.00
73651;BME280;61944;52.538;6.108;2023-07-31T00:33:31;100698.69;;;16.24;100.00
73651;BME280;61944;52.538;6.108;2023-07-31T00:35:56;100698.84;;;16.10;100.00
73651;BME280;61944;52.538;6.108;2023-07-31T00:38:22;100694.88;;;16.03;100.00
73651;BME280;61944;52.538;6.108;2023-07-31T00:40:47;100690.97;;;16.28;100.00
73651;BME280;61944;52.538;6.108;2023-07-31T00:43:12;100689.84;;;16.22;100.00
73651;BME280;61944;52.538;6.108;2023-07-31T00:45:38;100695.56;;;16.15;100.00
73651;BME280;61944;52.538;6.108;2023-07-31T00:48:04;100691.06;;;16.52;100.00
73651;BME280;61944;52.538;6.108;2023-07-31T00:50:31;100704.94;;;16.42;100.00
73651;BME280;61944;52.538;6.108;2023-07-31T00:52:56;100690.44;;;16.40;100.00
73651;BME280;61944;52.538;6.108;2023-07-31T00:55:22;100696.31;;;16.19;100.00
73651;BME280;61944;52.538;6.108;2023-07-31T00:57:48;100688.97;;;16.25;100.00
73651;BME280;61944;52.538;6.108;2023-07-31T01:00:14;100686.09;;;16.32;100.00
73651;BME280;61944;52.538;6.108;2023-07-31T01:02:40;100676.69;;;16.42;100.00
73651;BME280;61944;52.538;6.108;2023-07-31T01:05:05;100676.47;;;16.26;100.00
73651;BME280;61944;52.538;6.108;2023-07-31T01:10:16;100685.06;;;16.50;100.00
73651;BME280;61944;52.538;6.108;2023-07-31T01:12:45;100680.25;;;16.46;100.00
73651;BME280;61944;52.538;6.108;2023-07-31T01:15:12;100671.22;;;16.28;100.00
73651;BME280;61944;52.538;6.108;2023-07-31T01:17:39;100665.06;;;16.33;100.00
73651;BME280;61944;52.538;6.108;2023-07-31T01:20:12;100665.50;;;16.32;100.00
73651;BME280;61944;52.538;6.108;2023-07-31T01:25:59;100659.44;;;16.33;100.00
73651;BME280;61944;52.538;6.108;2023-07-31T01:31:13;100653.88;;;16.26;100.00
73651;BME280;61944;52.538;6.108;2023-07-31T01:33:40;100651.72;;;16.37;100.00
73651;BME280;61944;52.538;6.108;2023-07-31T01:36:05;100661.66;;;16.49;100.00
73651;BME280;61944;52.538;6.108;2023-07-31T01:38:31;100665.31;;;16.46;100.00
73651;BME280;61944;52.538;6.108;2023-07-31T01:40:57;100663.50;;;16.32;100.00
73651;BME280;61944;52.538;6.108;2023-07-31T01:43:22;100666.97;;;16.43;100.00
73651;BME280;61944;52.538;6.108;2023-07-31T01:45:49;100659.66;;;16.46;100.00
73651;BME280;61944;52.538;6.108;2023-07-31T01:48:14;100655.09;;;16.25;100.00
73651;BME280;61944;52.538;6.108;2023-07-31T01:50:40;100645.09;;;16.51;100.00
73651;BME280;61944;52.538;6.108;2023-07-31T01:53:05;100642.31;;;16.75;100.00
73651;BME280;61944;52.538;6.108;2023-07-31T01:55:31;100637.41;;;16.79;100.00
73651;BME280;61944;52.538;6.108;2023-07-31T01:57:57;100638.72;;;16.43;100.00
73651;BME280;61944;52.538;6.108;2023-07-31T02:00:23;100616.66;;;16.62;100.00
73651;BME280;61944;52.538;6.108;2023-07-31T02:02:48;100640.88;;;16.63;100.00
73651;BME280;61944;52.538;6.108;2023-07-31T02:05:13;100626.94;;;16.76;100.00
73651;BME280;61944;52.538;6.108;2023-07-31T02:07:39;100642.06;;;16.93;100.00
73651;BME280;61944;52.538;6.108;2023-07-31T02:10:04;100622.91;;;16.80;100.00
73651;BME280;61944;52.538;6.108;2023-07-31T02:12:30;100634.44;;;16.90;100.00
73651;BME280;61944;52.538;6.108;2023-07-31T02:14:57;100629.91;;;16.96;100.00
73651;BME280;61944;52.538;6.108;2023-07-31T02:17:22;100638.19;;;16.83;100.00
73651;BME280;61944;52.538;6.108;2023-07-31T02:19:48;100629.16;;;16.92;100.00
73651;BME280;61944;52.538;6.108;2023-07-31T02:22:14;100617.63;;;16.82;100.00
73651;BME280;61944;52.538;6.108;2023-07-31T02:24:39;100601.97;;;16.74;100.00
73651;BME280;61944;52.538;6.108;2023-07-31T02:27:05;100594.75;;;16.42;100.00
73651;BME280;61944;52.538;6.108;2023-07-31T02:29:30;100604.25;;;16.56;100.00
73651;BME280;61944;52.538;6.108;2023-07-31T02:31:56;100602.72;;;16.78;100.00
73651;BME280;61944;52.538;6.108;2023-07-31T02:34:21;100604.28;;;16.79;100.00
73651;BME280;61944;52.538;6.108;2023-07-31T02:36:46;100577.72;;;16.73;100.00
73651;BME280;61944;52.538;6.108;2023-07-31T02:39:12;100582.56;;;16.76;100.00
73651;BME280;61944;52.538;6.108;2023-07-31T02:41:37;100584.44;;;16.86;100.00
73651;BME280;61944;52.538;6.108;2023-07-31T02:44:03;100586.44;;;16.86;100.00
73651;BME280;61944;52.538;6.108;2023-07-31T02:46:28;100584.34;;;16.63;100.00
73651;BME280;61944;52.538;6.108;2023-07-31T02:48:54;100582.84;;;16.55;100.00
73651;BME280;61944;52.538;6.108;2023-07-31T02:51:19;100573.03;;;16.63;100.00
73651;BME280;61944;52.538;6.108;2023-07-31T02:53:47;100567.47;;;16.59;100.00
73651;BME280;61944;52.538;6.108;2023-07-31T02:56:13;100586.16;;;16.50;100.00
73651;BME280;61944;52.538;6.108;2023-07-31T02:58:39;100584.84;;;16.58;100.00
73651;BME280;61944;52.538;6.108;2023-07-31T03:01:05;100589.16;;;16.66;100.00
73651;BME280;61944;52.538;6.108;2023-07-31T03:03:30;100566.78;;;16.52;100.00
73651;BME280;61944;52.538;6.108;2023-07-31T03:05:56;100565.91;;;16.28;100.00
73651;BME280;61944;52.538;6.108;2023-07-31T03:08:21;100578.59;;;16.43;100.00
73651;BME280;61944;52.538;6.108;2023-07-31T03:10:46;100552.66;;;16.52;100.00
73651;BME280;61944;52.538;6.108;2023-07-31T03:13:12;100563.22;;;16.71;100.00
73651;BME280;61944;52.538;6.108;2023-07-31T03:15:37;100576.56;;;16.71;100.00
73651;BME280;61944;52.538;6.108;2023-07-31T03:18:03;100574.44;;;16.78;100.00
73651;BME280;61944;52.538;6.108;2023-07-31T03:20:28;100575.41;;;16.68;100.00
73651;BME280;61944;52.538;6.108;2023-07-31T03:22:53;100581.06;;;16.68;100.00
73651;BME280;61944;52.538;6.108;2023-07-31T03:25:19;100575.69;;;16.74;100.00
73651;BME280;61944;52.538;6.108;2023-07-31T03:27:44;100569.09;;;16.57;100.00
73651;BME280;61944;52.538;6.108;2023-07-31T03:30:11;100577.72;;;16.73;100.00
73651;BME280;61944;52.538;6.108;2023-07-31T03:32:36;100569.00;;;16.64;100.00
73651;BME280;61944;52.538;6.108;2023-07-31T03:35:02;100568.03;;;16.74;100.00
73651;BME280;61944;52.538;6.108;2023-07-31T03:37:28;100577.91;;;16.62;100.00
73651;BME280;61944;52.538;6.108;2023-07-31T03:39:54;100568.03;;;16.74;100.00
73651;BME280;61944;52.538;6.108;2023-07-31T03:42:19;100576.03;;;16.79;100.00
73651;BME280;61944;52.538;6.108;2023-07-31T03:44:45;100577.78;;;16.70;100.00
73651;BME280;61944;52.538;6.108;2023-07-31T03:47:10;100574.13;;;16.73;100.00
73651;BME280;61944;52.538;6.108;2023-07-31T03:49:36;100578.66;;;16.66;100.00
73651;BME280;61944;52.538;6.108;2023-07-31T03:52:01;100580.78;;;16.59;100.00
73651;BME280;61944;52.538;6.108;2023-07-31T03:54:27;100577.00;;;16.69;100.00
73651;BME280;61944;52.538;6.108;2023-07-31T03:56:52;100576.56;;;16.71;100.00
73651;BME280;61944;52.538;6.108;2023-07-31T03:59:17;100570.97;;;16.67;100.00
73651;BME280;61944;52.538;6.108;2023-07-31T04:01:43;100568.97;;;16.67;100.00
73651;BME280;61944;52.538;6.108;2023-07-31T04:04:08;100572.75;;;16.57;100.00
73651;BME280;61944;52.538;6.108;2023-07-31T04:06:34;100576.25;;;16.65;100.00
73651;BME280;61944;52.538;6.108;2023-07-31T04:08:59;100572.75;;;16.57;100.00
73651;BME280;61944;52.538;6.108;2023-07-31T04:11:24;100568.63;;;16.62;100.00
73651;BME280;61944;52.538;6.108;2023-07-31T04:13:50;100558.06;;;16.66;100.00
73651;BME280;61944;52.538;6.108;2023-07-31T04:16:15;100549.66;;;16.62;100.00
73651;BME280;61944;52.538;6.108;2023-07-31T04:18:41;100562.50;;;16.67;100.00
73651;BME280;61944;52.538;6.108;2023-07-31T04:21:06;100565.59;;;16.76;100.00
73651;BME280;61944;52.538;6.108;2023-07-31T04:23:31;100560.91;;;16.66;100.00
73651;BME280;61944;52.538;6.108;2023-07-31T04:25:57;100542.56;;;16.51;100.00
73651;BME280;61944;52.538;6.108;2023-07-31T04:28:22;100536.06;;;16.54;100.00
73651;BME280;61944;52.538;6.108;2023-07-31T04:30:48;100551.00;;;16.78;100.00
73651;BME280;61944;52.538;6.108;2023-07-31T04:33:13;100548.25;;;16.74;100.00
73651;BME280;61944;52.538;6.108;2023-07-31T04:35:39;100525.47;;;16.61;100.00
73651;BME280;61944;52.538;6.108;2023-07-31T04:38:04;100525.47;;;16.61;100.00
73651;BME280;61944;52.538;6.108;2023-07-31T04:40:29;100531.91;;;16.62;100.00
73651;BME280;61944;52.538;6.108;2023-07-31T04:42:55;100547.03;;;16.75;100.00
73651;BME280;61944;52.538;6.108;2023-07-31T04:45:20;100535.88;;;16.64;100.00
73651;BME280;61944;52.538;6.108;2023-07-31T04:47:46;100541.50;;;16.68;100.00
73651;BME280;61944;52.538;6.108;2023-07-31T04:50:11;100535.84;;;16.68;100.00
73651;BME280;61944;52.538;6.108;2023-07-31T04:52:37;100534.78;;;16.58;100.00
73651;BME280;61944;52.538;6.108;2023-07-31T04:55:02;100519.91;;;16.54;100.00
73651;BME280;61944;52.538;6.108;2023-07-31T04:57:28;100535.09;;;16.64;100.00
73651;BME280;61944;52.538;6.108;2023-07-31T04:59:53;100530.97;;;16.69;100.00
73651;BME280;61944;52.538;6.108;2023-07-31T05:02:18;100519.06;;;16.57;100.00
73651;BME280;61944;52.538;6.108;2023-07-31T05:04:44;100521.72;;;16.68;100.00
73651;BME280;61944;52.538;6.108;2023-07-31T05:07:10;100520.53;;;16.65;100.00
73651;BME280;61944;52.538;6.108;2023-07-31T05:09:35;100508.66;;;16.51;100.00
73651;BME280;61944;52.538;6.108;2023-07-31T05:12:00;100531.03;;;16.65;100.00
73651;BME280;61944;52.538;6.108;2023-07-31T05:14:26;100519.25;;;16.46;100.00
73651;BME280;61944;52.538;6.108;2023-07-31T05:16:51;100515.31;;;16.64;100.00
73651;BME280;61944;52.538;6.108;2023-07-31T05:19:17;100513.47;;;16.54;100.00
73651;BME280;61944;52.538;6.108;2023-07-31T05:21:43;100515.13;;;16.75;100.00
73651;BME280;61944;52.538;6.108;2023-07-31T05:24:10;100515.28;;;16.67;100.00
73651;BME280;61944;52.538;6.108;2023-07-31T05:26:36;100514.25;;;16.54;100.00
73651;BME280;61944;52.538;6.108;2023-07-31T05:29:01;100526.25;;;16.62;100.00
73651;BME280;61944;52.538;6.108;2023-07-31T05:31:27;100522.19;;;16.63;100.00
73651;BME280;61944;52.538;6.108;2023-07-31T05:33:52;100512.91;;;16.62;100.00
73651;BME280;61944;52.538;6.108;2023-07-31T05:36:19;100518.50;;;16.66;100.00
73651;BME280;61944;52.538;6.108;2023-07-31T05:38:45;100516.34;;;16.50;100.00
73651;BME280;61944;52.538;6.108;2023-07-31T05:41:14;100519.94;;;16.51;100.00
73651;BME280;61944;52.538;6.108;2023-07-31T05:43:40;100514.19;;;16.58;100.00
73651;BME280;61944;52.538;6.108;2023-07-31T05:46:06;100502.16;;;16.54;100.00
73651;BME280;61944;52.538;6.108;2023-07-31T05:48:32;100508.59;;;16.54;100.00
73651;BME280;61944;52.538;6.108;2023-07-31T05:51:00;100506.19;;;16.53;100.00
73651;BME280;61944;52.538;6.108;2023-07-31T05:53:27;100490.84;;;16.54;100.00
73651;BME280;61944;52.538;6.108;2023-07-31T05:55:52;100515.59;;;16.70;100.00
73651;BME280;61944;52.538;6.108;2023-07-31T05:58:18;100507.69;;;16.61;100.00
73651;BME280;61944;52.538;6.108;2023-07-31T06:00:43;100505.13;;;16.70;100.00
73651;BME280;61944;52.538;6.108;2023-07-31T06:03:09;100499.56;;;16.63;100.00
73651;BME280;61944;52.538;6.108;2023-07-31T06:05:34;100487.47;;;16.39;100.00
73651;BME280;61944;52.538;6.108;2023-07-31T06:08:00;100494.97;;;16.49;100.00
73651;BME280;61944;52.538;6.108;2023-07-31T06:10:26;100500.63;;;16.49;100.00
73651;BME280;61944;52.538;6.108;2023-07-31T06:12:51;100486.69;;;16.62;100.00
73651;BME280;61944;52.538;6.108;2023-07-31T06:15:18;100496.47;;;16.57;100.00
73651;BME280;61944;52.538;6.108;2023-07-31T06:17:46;100495.03;;;16.69;100.00
73651;BME280;61944;52.538;6.108;2023-07-31T06:20:12;100487.47;;;16.62;100.00
73651;BME280;61944;52.538;6.108;2023-07-31T06:22:37;100481.63;;;16.50;100.00
73651;BME280;61944;52.538;6.108;2023-07-31T06:25:03;100477.28;;;16.45;100.00
73651;BME280;61944;52.538;6.108;2023-07-31T06:27:28;100491.69;;;16.51;100.00
73651;BME280;61944;52.538;6.108;2023-07-31T06:29:54;100481.03;;;16.62;100.00
73651;BME280;61944;52.538;6.108;2023-07-31T06:32:19;100481.13;;;16.55;100.00
73651;BME280;61944;52.538;6.108;2023-07-31T06:34:45;100490.31;;;16.62;100.00
73651;BME280;61944;52.538;6.108;2023-07-31T06:37:10;100469.00;;;16.58;100.00
73651;BME280;61944;52.538;6.108;2023-07-31T06:39:36;100466.78;;;16.45;100.00
73651;BME280;61944;52.538;6.108;2023-07-31T06:42:02;100478.44;;;16.71;100.00
73651;BME280;61944;52.538;6.108;2023-07-31T06:44:31;100460.88;;;16.60;100.00
73651;BME280;61944;52.538;6.108;2023-07-31T06:46:56;100461.63;;;16.64;100.00
73651;BME280;61944;52.538;6.108;2023-07-31T06:49:22;100462.47;;;16.61;100.00
73651;BME280;61944;52.538;6.108;2023-07-31T06:51:47;100455.59;;;16.62;100.00
73651;BME280;61944;52.538;6.108;2023-07-31T06:54:15;100456.09;;;16.57;100.00
73651;BME280;61944;52.538;6.108;2023-07-31T06:56:41;100446.63;;;16.67;100.00
73651;BME280;61944;52.538;6.108;2023-07-31T06:59:06;100428.47;;;16.68;100.00
73651;BME280;61944;52.538;6.108;2023-07-31T07:01:32;100428.50;;;16.64;100.00
73651;BME280;61944;52.538;6.108;2023-07-31T07:03:58;100435.03;;;16.61;100.00
73651;BME280;61944;52.538;6.108;2023-07-31T07:06:24;100439.06;;;16.60;100.00
73651;BME280;61944;52.538;6.108;2023-07-31T07:08:50;100436.69;;;16.59;100.00
73651;BME280;61944;52.538;6.108;2023-07-31T07:11:15;100439.13;;;16.57;100.00
73651;BME280;61944;52.538;6.108;2023-07-31T07:13:41;100432.69;;;16.56;100.00
73651;BME280;61944;52.538;6.108;2023-07-31T07:16:06;100426.94;;;16.63;100.00
73651;BME280;61944;52.538;6.108;2023-07-31T07:18:32;100426.97;;;16.60;100.00
73651;BME280;61944;52.538;6.108;2023-07-31T07:20:57;100402.91;;;16.52;100.00
73651;BME280;61944;52.538;6.108;2023-07-31T07:23:23;100428.31;;;16.75;100.00
73651;BME280;61944;52.538;6.108;2023-07-31T07:25:49;100416.66;;;16.73;100.00
73651;BME280;61944;52.538;6.108;2023-07-31T07:28:14;100416.41;;;16.64;100.00
73651;BME280;61944;52.538;6.108;2023-07-31T07:30:40;100414.91;;;16.59;100.00
73651;BME280;61944;52.538;6.108;2023-07-31T07:33:06;100411.00;;;16.50;100.00
73651;BME280;61944;52.538;6.108;2023-07-31T07:35:35;100417.91;;;16.49;100.00
73651;BME280;61944;52.538;6.108;2023-07-31T07:38:04;100423.72;;;16.61;100.00
73651;BME280;61944;52.538;6.108;2023-07-31T07:40:29;100422.66;;;16.75;100.00
73651;BME280;61944;52.538;6.108;2023-07-31T07:42:56;100407.56;;;16.62;100.00
73651;BME280;61944;52.538;6.108;2023-07-31T07:45:21;100401.13;;;16.61;100.00
73651;BME280;61944;52.538;6.108;2023-07-31T07:47:47;100404.56;;;16.73;100.00
73651;BME280;61944;52.538;6.108;2023-07-31T07:50:12;100386.28;;;16.77;100.00
73651;BME280;61944;52.538;6.108;2023-07-31T07:52:37;100404.22;;;16.91;100.00
73651;BME280;61944;52.538;6.108;2023-07-31T07:55:03;100412.16;;;16.99;100.00
73651;BME280;61944;52.538;6.108;2023-07-31T07:57:29;100390.59;;;16.85;100.00
73651;BME280;61944;52.538;6.108;2023-07-31T07:59:54;100398.09;;;16.96;100.00
73651;BME280;61944;52.538;6.108;2023-07-31T08:02:20;100410.97;;;16.97;100.00
73651;BME280;61944;52.538;6.108;2023-07-31T08:04:45;100409.13;;;17.10;100.00
73651;BME280;61944;52.538;6.108;2023-07-31T08:07:11;100396.94;;;17.13;100.00
73651;BME280;61944;52.538;6.108;2023-07-31T08:09:37;100380.91;;;17.06;100.00
73651;BME280;61944;52.538;6.108;2023-07-31T08:12:03;100385.16;;;16.95;100.00
73651;BME280;61944;52.538;6.108;2023-07-31T08:14:29;100387.34;;;17.07;100.00
73651;BME280;61944;52.538;6.108;2023-07-31T08:16:54;100381.34;;;16.85;100.00
73651;BME280;61944;52.538;6.108;2023-07-31T08:19:21;100376.41;;;16.89;100.00
73651;BME280;61944;52.538;6.108;2023-07-31T08:21:46;100374.75;;;16.92;100.00
73651;BME280;61944;52.538;6.108;2023-07-31T08:24:12;100375.41;;;16.99;100.00
73651;BME280;61944;52.538;6.108;2023-07-31T08:26:37;100380.13;;;17.06;100.00
73651;BME280;61944;52.538;6.108;2023-07-31T08:29:03;100363.16;;;17.06;100.00
73651;BME280;61944;52.538;6.108;2023-07-31T08:31:28;100382.13;;;17.25;100.00
73651;BME280;61944;52.538;6.108;2023-07-31T08:33:57;100382.84;;;17.30;100.00
73651;BME280;61944;52.538;6.108;2023-07-31T08:36:22;100373.34;;;17.20;100.00
73651;BME280;61944;52.538;6.108;2023-07-31T08:38:48;100366.78;;;17.06;100.00
73651;BME280;61944;52.538;6.108;2023-07-31T08:41:15;100357.03;;;17.07;100.00
73651;BME280;61944;52.538;6.108;2023-07-31T08:43:44;100358.22;;;17.10;100.00
73651;BME280;61944;52.538;6.108;2023-07-31T08:46:10;100360.16;;;17.13;100.00
73651;BME280;61944;52.538;6.108;2023-07-31T08:48:37;100359.50;;;17.25;100.00
73651;BME280;61944;52.538;6.108;2023-07-31T08:51:03;100360.53;;;17.15;100.00
73651;BME280;61944;52.538;6.108;2023-07-31T08:53:29;100378.06;;;17.26;100.00
73651;BME280;61944;52.538;6.108;2023-07-31T08:55:56;100357.94;;;17.24;100.00
73651;BME280;61944;52.538;6.108;2023-07-31T08:58:23;100357.22;;;17.20;100.00
73651;BME280;61944;52.538;6.108;2023-07-31T09:00:50;100363.06;;;17.30;100.00
73651;BME280;61944;52.538;6.108;2023-07-31T09:03:17;100367.94;;;17.29;100.00
73651;BME280;61944;52.538;6.108;2023-07-31T09:05:45;100376.19;;;17.40;100.00
73651;BME280;61944;52.538;6.108;2023-07-31T09:08:19;100359.50;;;17.25;100.00
73651;BME280;61944;52.538;6.108;2023-07-31T09:10:46;100373.00;;;17.38;100.00
73651;BME280;61944;52.538;6.108;2023-07-31T09:13:13;100364.50;;;17.38;100.00
73651;BME280;61944;52.538;6.108;2023-07-31T09:15:39;100369.19;;;17.44;100.00
73651;BME280;61944;52.538;6.108;2023-07-31T09:18:07;100369.19;;;17.44;100.00
73651;BME280;61944;52.538;6.108;2023-07-31T09:20:33;100375.88;;;17.54;100.00
73651;BME280;61944;52.538;6.108;2023-07-31T09:23:25;100365.78;;;17.53;100.00
73651;BME280;61944;52.538;6.108;2023-07-31T09:25:50;100351.44;;;17.44;100.00
73651;BME280;61944;52.538;6.108;2023-07-31T09:28:16;100349.31;;;17.48;100.00
73651;BME280;61944;52.538;6.108;2023-07-31T09:30:52;100342.94;;;17.44;100.00
73651;BME280;61944;52.538;6.108;2023-07-31T09:33:18;100349.16;;;17.55;100.00
73651;BME280;61944;52.538;6.108;2023-07-31T09:35:44;100334.66;;;17.53;100.00
73651;BME280;61944;52.538;6.108;2023-07-31T09:38:11;100352.16;;;17.64;100.00
73651;BME280;61944;52.538;6.108;2023-07-31T09:43:11;100341.81;;;17.58;100.00
73651;BME280;61944;52.538;6.108;2023-07-31T09:45:39;100357.75;;;17.68;100.00
73651;BME280;61944;52.538;6.108;2023-07-31T09:48:14;100341.75;;;17.61;100.00
73651;BME280;61944;52.538;6.108;2023-07-31T09:50:44;100340.63;;;17.75;100.00
73651;BME280;61944;52.538;6.108;2023-07-31T09:53:10;100347.63;;;17.87;100.00
73651;BME280;61944;52.538;6.108;2023-07-31T09:55:37;100340.63;;;17.75;100.00
73651;BME280;61944;52.538;6.108;2023-07-31T09:58:12;100341.47;;;17.72;100.00
73651;BME280;61944;52.538;6.108;2023-07-31T10:00:37;100330.25;;;17.68;100.00
73651;BME280;61944;52.538;6.108;2023-07-31T10:03:08;100330.00;;;17.79;100.00
73651;BME280;61944;52.538;6.108;2023-07-31T10:05:38;100336.31;;;17.87;100.00
73651;BME280;61944;52.538;6.108;2023-07-31T10:08:06;100340.28;;;17.90;100.00
73651;BME280;61944;52.538;6.108;2023-07-31T10:10:32;100321.63;;;17.92;100.00
73651;BME280;61944;52.538;6.108;2023-07-31T10:13:01;100327.09;;;17.99;100.00
73651;BME280;61944;52.538;6.108;2023-07-31T10:15:31;100332.50;;;18.10;100.00
73651;BME280;61944;52.538;6.108;2023-07-31T10:17:58;100338.88;;;18.14;100.00
73651;BME280;61944;52.538;6.108;2023-07-31T10:20:24;100330.81;;;18.13;100.00
73651;BME280;61944;52.538;6.108;2023-07-31T10:22:51;100330.81;;;18.13;100.00
73651;BME280;61944;52.538;6.108;2023-07-31T10:25:18;100321.09;;;17.97;100.00
73651;BME280;61944;52.538;6.108;2023-07-31T10:27:45;100328.88;;;18.10;100.00
73651;BME280;61944;52.538;6.108;2023-07-31T10:30:15;100323.56;;;18.12;100.00
73651;BME280;61944;52.538;6.108;2023-07-31T10:32:43;100336.84;;;18.15;100.00
73651;BME280;61944;52.538;6.108;2023-07-31T10:35:09;100334.53;;;18.10;100.00
73651;BME280;61944;52.538;6.108;2023-07-31T10:37:41;100341.97;;;18.20;100.00
73651;BME280;61944;52.538;6.108;2023-07-31T10:40:24;100332.22;;;18.21;100.00
73651;BME280;61944;52.538;6.108;2023-07-31T10:42:56;100309.84;;;18.10;100.00
73651;BME280;61944;52.538;6.108;2023-07-31T10:45:25;100334.53;;;18.10;100.00
73651;BME280;61944;52.538;6.108;2023-07-31T10:48:15;100313.94;;;18.09;100.00
73651;BME280;61944;52.538;6.108;2023-07-31T10:50:51;100318.19;;;18.17;100.00
73651;BME280;61944;52.538;6.108;2023-07-31T10:53:31;100318.94;;;18.34;100.00
73651;BME280;61944;52.538;6.108;2023-07-31T10:56:00;100327.81;;;18.36;100.00
73651;BME280;61944;52.538;6.108;2023-07-31T10:58:29;100307.16;;;18.36;100.00
73651;BME280;61944;52.538;6.108;2023-07-31T11:00:59;100307.06;;;18.39;100.00
73651;BME280;61944;52.538;6.108;2023-07-31T11:03:26;100312.00;;;18.52;100.00
73651;BME280;61944;52.538;6.108;2023-07-31T11:08:29;100317.84;;;18.44;100.00
73651;BME280;61944;52.538;6.108;2023-07-31T11:13:26;100307.75;;;18.43;100.00
73651;BME280;61944;52.538;6.108;2023-07-31T11:15:51;100317.91;;;18.28;100.00
73651;BME280;61944;52.538;6.108;2023-07-31T11:18:17;100322.31;;;18.29;100.00
73651;BME280;61944;52.538;6.108;2023-07-31T11:20:43;100320.38;;;18.26;100.00
73651;BME280;61944;52.538;6.108;2023-07-31T11:23:09;100316.78;;;18.38;100.00
73651;BME280;61944;52.538;6.108;2023-07-31T11:25:38;100325.47;;;18.47;100.00
73651;BME280;61944;52.538;6.108;2023-07-31T11:28:14;100312.88;;;18.48;100.00
73651;BME280;61944;52.538;6.108;2023-07-31T11:30:41;100313.00;;;18.74;100.00
73651;BME280;61944;52.538;6.108;2023-07-31T11:33:07;100324.50;;;18.83;100.00
73651;BME280;61944;52.538;6.108;2023-07-31T11:35:35;100306.16;;;18.72;100.00
73651;BME280;61944;52.538;6.108;2023-07-31T11:38:01;100318.53;;;18.94;100.00
73651;BME280;61944;52.538;6.108;2023-07-31T11:40:28;100309.09;;;18.97;100.00
73651;BME280;61944;52.538;6.108;2023-07-31T11:43:03;100311.66;;;19.08;100.00
73651;BME280;61944;52.538;6.108;2023-07-31T11:45:29;100306.97;;;19.14;100.00
73651;BME280;61944;52.538;6.108;2023-07-31T11:47:55;100302.81;;;19.19;100.00
73651;BME280;61944;52.538;6.108;2023-07-31T11:50:22;100318.91;;;19.22;100.00
73651;BME280;61944;52.538;6.108;2023-07-31T11:52:54;100336.41;;;19.33;100.00
73651;BME280;61944;52.538;6.108;2023-07-31T11:55:21;100316.53;;;19.20;100.00
73651;BME280;61944;52.538;6.108;2023-07-31T11:57:46;100330.03;;;19.16;100.00
73651;BME280;61944;52.538;6.108;2023-07-31T12:00:13;100335.28;;;18.88;100.00
73651;BME280;61944;52.538;6.108;2023-07-31T12:02:39;100330.44;;;18.89;100.00
73651;BME280;61944;52.538;6.108;2023-07-31T12:05:10;100331.31;;;18.69;100.00
73651;BME280;61944;52.538;6.108;2023-07-31T12:07:49;100333.16;;;18.76;100.00
73651;BME280;61944;52.538;6.108;2023-07-31T12:10:26;100325.03;;;18.78;100.00
73651;BME280;61944;52.538;6.108;2023-07-31T12:13:00;100325.91;;;18.92;100.00
73651;BME280;61944;52.538;6.108;2023-07-31T12:17:57;100332.25;;;18.96;100.00
73651;BME280;61944;52.538;6.108;2023-07-31T12:20:22;100324.66;;;19.05;100.00
73651;BME280;61944;52.538;6.108;2023-07-31T12:22:48;100324.91;;;19.11;100.00
73651;BME280;61944;52.538;6.108;2023-07-31T12:25:16;100337.03;;;18.99;100.00
73651;BME280;61944;52.538;6.108;2023-07-31T12:27:44;100320.00;;;18.99;100.00
73651;BME280;61944;52.538;6.108;2023-07-31T12:30:29;100339.88;;;19.12;100.00
73651;BME280;61944;52.538;6.108;2023-07-31T12:32:55;100327.06;;;19.07;100.00
73651;BME280;61944;52.538;6.108;2023-07-31T12:35:20;100329.00;;;19.10;100.00
73651;BME280;61944;52.538;6.108;2023-07-31T12:37:45;100318.13;;;19.21;100.00
73651;BME280;61944;52.538;6.108;2023-07-31T12:40:11;100317.91;;;19.28;100.00
73651;BME280;61944;52.538;6.108;2023-07-31T12:42:37;100315.53;;;19.27;100.00
73651;BME280;61944;52.538;6.108;2023-07-31T12:45:03;100314.72;;;19.26;100.00
73651;BME280;61944;52.538;6.108;2023-07-31T12:47:29;100313.16;;;19.25;100.00
73651;BME280;61944;52.538;6.108;2023-07-31T12:49:55;100307.81;;;19.27;100.00
73651;BME280;61944;52.538;6.108;2023-07-31T12:52:20;100312.22;;;19.28;100.00
73651;BME280;61944;52.538;6.108;2023-07-31T12:54:46;100283.16;;;19.12;100.00
73651;BME280;61944;52.538;6.108;2023-07-31T12:57:11;100282.81;;;19.22;100.00